Terminal Aerodrome Forecast
Issued by NWS Charleston, WV

Current Version | Previous Version | Graphics & Text | Print | Product List | Glossary On
Versions: 1 2 3 4 5 6 7 8 9 10 11 12 13 14 15 16 17 18 19 20 21 22 23 24 25 26 27 28
000
FTUS41 KRLX 261425 AAA
TAFHTS
TAF AMD
KHTS 261425Z 2614/2712 20007KT 6SM SHRA OVC050
      TEMPO 2614/2618 4SM SHRA OVC030
     FM261900 19007KT P6SM +SHRA VCTS BKN035CB
     FM262200 19006KT P6SM SHRA VCTS BKN040CB
     FM270000 19005KT P6SM -SHRA BKN040=

USA.gov is the U.S. government's official web portal to all federal, state and local government web resources and services.